Jackie Gonsoulin — WDE3014 — position and weather

sailwx.info

Track history (hours):
 
Tides and Currents Weather Stations Pressure Air Temp Water Temp Dewpoint Dewpoint Depression Visibility Wind Speed Wind Dir Waves Ship Positions

Jackie Gonsoulin

Owner: LeBeouf Bros. Towing, LLC, Houma, LA. More information available from US FCC via Universal Licensing System and Coast Guard Vessel Documentation Center.

Last reported at 2017-Nov-19 10:28 UTC. Time now 2017-Nov-22 14:47 UTC.
Position N 29°36' W 090°58'.

Length 23 m.

Type: Tug. MMSI: 367332930.

Date/timePositionNaut miles runAvg speedWind from/ knotsBaromVisibWave heightAir tempDewpointWater temp
2017-Nov-19 10:28N 29°36' W 090°58'8 6.1
2017-Nov-19 09:11N 29°32' W 090°50'1 6.4
2017-Nov-19 09:00N 29°32' W 090°49'3 6.0
2017-Nov-19 08:30N 29°33' W 090°46'3 5.8
2017-Nov-19 08:00N 29°35' W 090°43'0 0.6
2017-Nov-19 07:30N 29°35' W 090°43'0 0.0
2017-Nov-19 07:00N 29°35' W 090°43'0 0.0
2017-Nov-19 06:30N 29°35' W 090°43'0 0.0
2017-Nov-19 06:00N 29°35' W 090°43'2 4.2
2017-Nov-19 05:30N 29°37' W 090°42'3 6.8
2017-Nov-19 05:00N 29°35' W 090°39'3 5.5
2017-Nov-19 04:30N 29°34' W 090°36'0 0.3
2017-Nov-19 04:00N 29°34' W 090°36'0 0.0
2017-Nov-19 03:30N 29°34' W 090°36'0 0.0
2017-Nov-19 03:00N 29°34' W 090°36'0 0.0
2017-Nov-19 02:30N 29°34' W 090°36'0 0.0
2017-Nov-19 02:00N 29°34' W 090°36'0 0.0
2017-Nov-19 01:30N 29°34' W 090°36'0 0.0
2017-Nov-19 01:00N 29°34' W 090°36'0 0.0
2017-Nov-19 00:30N 29°34' W 090°36'0 0.0
2017-Nov-19 00:00N 29°34' W 090°36'0 0.0
2017-Nov-18 23:30N 29°34' W 090°36'0 0.0
2017-Nov-18 23:00N 29°34' W 090°36'0 0.0
2017-Nov-18 22:30N 29°34' W 090°36'0 0.0
2017-Nov-18 22:00N 29°34' W 090°36'0 0.0
2017-Nov-18 21:30N 29°34' W 090°36'0 0.0
2017-Nov-18 21:00N 29°34' W 090°36'0 0.0
2017-Nov-18 20:30N 29°34' W 090°36'0 0.0
2017-Nov-18 20:00N 29°34' W 090°36'0 0.0
2017-Nov-18 19:30N 29°34' W 090°36'0 0.0
2017-Nov-18 19:00N 29°34' W 090°36'0 0.0
2017-Nov-18 18:30N 29°34' W 090°36'0 0.0
2017-Nov-18 18:00N 29°34' W 090°36'0 0.0
2017-Nov-18 17:29N 29°34' W 090°36'0 0.0
2017-Nov-18 17:00N 29°34' W 090°36'0 0.0
2017-Nov-18 16:30N 29°34' W 090°36'0 0.0
2017-Nov-18 16:00N 29°34' W 090°36'0 0.0
2017-Nov-18 15:30N 29°34' W 090°36'0 0.0
2017-Nov-18 15:00N 29°34' W 090°36'0 0.0
2017-Nov-18 14:30N 29°34' W 090°36'0 0.0
2017-Nov-18 14:00N 29°34' W 090°36'0 0.0
2017-Nov-18 13:30N 29°34' W 090°36'0 0.0
2017-Nov-18 13:00N 29°34' W 090°36'0 0.0
2017-Nov-18 12:30N 29°34' W 090°36'0 0.0
2017-Nov-18 12:00N 29°34' W 090°36'0 0.0
2017-Nov-18 11:29N 29°34' W 090°36'0 0.0
2017-Nov-18 11:00N 29°34' W 090°36'0 0.0
2017-Nov-18 10:30N 29°34' W 090°36'0 0.0
2017-Nov-18 10:00N 29°34' W 090°36'0 0.0
2017-Nov-18 09:30N 29°34' W 090°36'0 0.0
2017-Nov-18 09:00N 29°34' W 090°36'0 0.0
2017-Nov-18 08:30N 29°34' W 090°36'0 0.0
2017-Nov-18 08:00N 29°34' W 090°36'0 0.0
2017-Nov-18 07:30N 29°34' W 090°36'0 0.0
2017-Nov-18 07:00N 29°34' W 090°36'0 0.0
2017-Nov-18 06:30N 29°34' W 090°36'0 0.0
2017-Nov-18 06:00N 29°34' W 090°36'0 0.0
2017-Nov-18 05:30N 29°34' W 090°36'0 0.0
2017-Nov-18 05:00N 29°34' W 090°36'0 0.0
2017-Nov-18 04:30N 29°34' W 090°36'0 0.0
2017-Nov-18 04:00N 29°34' W 090°36'0 0.0
2017-Nov-18 03:30N 29°34' W 090°36'0 0.0
2017-Nov-18 03:00N 29°34' W 090°36'0 0.0
2017-Nov-18 02:30N 29°34' W 090°36'0 0.0
2017-Nov-18 02:00N 29°34' W 090°36'0 0.0
2017-Nov-18 01:30N 29°34' W 090°36'0 0.0
2017-Nov-18 01:00N 29°34' W 090°36'0 0.0
2017-Nov-18 00:30N 29°34' W 090°36'0 0.0
2017-Nov-18 00:00N 29°34' W 090°36'0 0.0
2017-Nov-17 23:30N 29°34' W 090°36'0 0.0
2017-Nov-17 23:00N 29°34' W 090°36'0 0.0
2017-Nov-17 22:30N 29°34' W 090°36'0 0.0
2017-Nov-17 22:00N 29°34' W 090°36'0 0.0
2017-Nov-17 21:30N 29°34' W 090°36'0 0.0
2017-Nov-17 21:00N 29°34' W 090°36'0 0.0
2017-Nov-17 20:30N 29°34' W 090°36'0 0.0
2017-Nov-17 20:00N 29°34' W 090°36'0 0.0
2017-Nov-17 19:30N 29°34' W 090°36'0 0.0
2017-Nov-17 19:00N 29°34' W 090°36'0 0.7
2017-Nov-17 18:30N 29°35' W 090°36'0 0.7
2017-Nov-17 18:00N 29°34' W 090°36'0 0.0
2017-Nov-17 17:30N 29°34' W 090°36'0 0.0
2017-Nov-17 17:00N 29°34' W 090°36'0 0.0
2017-Nov-17 16:30N 29°34' W 090°36'0 0.0
2017-Nov-17 16:00N 29°34' W 090°36'0 0.0
2017-Nov-17 15:30N 29°34' W 090°36'0 0.0
2017-Nov-17 15:00N 29°34' W 090°36'0 0.0
2017-Nov-17 14:30N 29°34' W 090°36'0 0.0
2017-Nov-17 14:00N 29°34' W 090°36'0 0.0
2017-Nov-17 13:30N 29°34' W 090°36'0 0.0
2017-Nov-17 13:00N 29°34' W 090°36'0 0.0
2017-Nov-17 12:30N 29°34' W 090°36'0 0.0
2017-Nov-17 11:59N 29°34' W 090°36'0 0.0
2017-Nov-17 11:30N 29°34' W 090°36'0 0.0
2017-Nov-17 11:00N 29°34' W 090°36'0 0.0
2017-Nov-17 10:30N 29°34' W 090°36'0 0.0
2017-Nov-17 10:00N 29°34' W 090°36'0 0.0
2017-Nov-17 09:30N 29°34' W 090°36'0 0.0
2017-Nov-17 08:30N 29°34' W 090°36'0 0.0
2017-Nov-17 08:00N 29°34' W 090°36'0 0.0
2017-Nov-17 07:30N 29°34' W 090°36'0 0.0
2017-Nov-17 07:00N 29°34' W 090°36'0 0.0
2017-Nov-17 06:30N 29°34' W 090°36'0 0.0
2017-Nov-17 06:00N 29°34' W 090°36'0 0.0
2017-Nov-17 05:30N 29°34' W 090°36'0 0.0
2017-Nov-17 05:00N 29°34' W 090°36'0 0.0
2017-Nov-17 04:30N 29°34' W 090°36'0 0.0
2017-Nov-17 03:57N 29°34' W 090°36'0 0.0
2017-Nov-17 03:30N 29°34' W 090°36'0 0.0
2017-Nov-17 03:00N 29°34' W 090°36'0 0.0
2017-Nov-17 02:30N 29°34' W 090°36'0 0.0
2017-Nov-17 02:00N 29°34' W 090°36'0 0.0
2017-Nov-17 01:30N 29°34' W 090°36'0 0.0
2017-Nov-17 01:00N 29°34' W 090°36'0 0.0
2017-Nov-17 00:30N 29°34' W 090°36'0 0.0
2017-Nov-17 00:00N 29°34' W 090°36'0 0.0
2017-Nov-16 23:30N 29°34' W 090°36'0 0.0
2017-Nov-16 23:00N 29°34' W 090°36'0 0.0
2017-Nov-16 22:30N 29°34' W 090°36'0 0.0
2017-Nov-16 22:00N 29°34' W 090°36'0 0.0
2017-Nov-16 21:30N 29°34' W 090°36'0 0.0
2017-Nov-16 21:00N 29°34' W 090°36'0 0.0
2017-Nov-16 20:30N 29°34' W 090°36'0 0.0
2017-Nov-16 20:00N 29°34' W 090°36'  
2017-Nov-13 02:00N 29°34' W 090°36'0 0.0
2017-Nov-13 01:30N 29°34' W 090°36'0 0.0
2017-Nov-13 01:00N 29°34' W 090°36'0 0.0
2017-Nov-13 00:30N 29°34' W 090°36'0 0.0
2017-Nov-13 00:00N 29°34' W 090°36'0 0.0
2017-Nov-12 23:30N 29°34' W 090°36'0 0.0
2017-Nov-12 23:00N 29°34' W 090°36'0 0.0
2017-Nov-12 22:30N 29°34' W 090°36'0 0.0
2017-Nov-12 22:00N 29°34' W 090°36'0 0.0
2017-Nov-12 21:30N 29°34' W 090°36'0 0.0
2017-Nov-12 21:00N 29°34' W 090°36'0 0.0
2017-Nov-12 20:30N 29°34' W 090°36'0 0.0
2017-Nov-12 20:00N 29°34' W 090°36'0 0.0
2017-Nov-12 19:30N 29°34' W 090°36'0 0.0
2017-Nov-12 19:00N 29°34' W 090°36'0 0.0
2017-Nov-12 18:30N 29°34' W 090°36'0 0.0
2017-Nov-12 18:00N 29°34' W 090°36'0 0.0
2017-Nov-12 17:30N 29°34' W 090°36'0 0.0
2017-Nov-12 17:00N 29°34' W 090°36'0 0.0
2017-Nov-12 16:30N 29°34' W 090°36'0 0.0
2017-Nov-12 16:00N 29°34' W 090°36'0 0.0
2017-Nov-12 15:30N 29°34' W 090°36'0 0.0
2017-Nov-12 15:00N 29°34' W 090°36'0 0.0
2017-Nov-12 14:30N 29°34' W 090°36'0 0.0
2017-Nov-12 14:00N 29°34' W 090°36'0 0.0
2017-Nov-12 13:30N 29°34' W 090°36'0 0.0
2017-Nov-12 13:00N 29°34' W 090°36'0 0.0
2017-Nov-12 12:30N 29°34' W 090°36'0 0.0
2017-Nov-12 12:00N 29°34' W 090°36'0 0.0
2017-Nov-12 11:30N 29°34' W 090°36'0 0.0
2017-Nov-12 11:00N 29°34' W 090°36'0 0.0
2017-Nov-12 10:30N 29°34' W 090°36'0 0.0
2017-Nov-12 10:00N 29°34' W 090°36'0 0.0
2017-Nov-12 09:30N 29°34' W 090°36'0 0.0
2017-Nov-12 09:00N 29°34' W 090°36'0 0.0
2017-Nov-12 08:30N 29°34' W 090°36'0 0.0
2017-Nov-12 08:00N 29°34' W 090°36'0 0.0
2017-Nov-12 07:30N 29°34' W 090°36'0 0.0
2017-Nov-12 07:00N 29°34' W 090°36'0 0.0
2017-Nov-12 06:30N 29°34' W 090°36'0 0.0
2017-Nov-12 06:00N 29°34' W 090°36'0 0.0
2017-Nov-12 05:30N 29°34' W 090°36'0 0.0
2017-Nov-12 05:00N 29°34' W 090°36'0 0.0
2017-Nov-12 04:30N 29°34' W 090°36'0 0.0
2017-Nov-12 04:00N 29°34' W 090°36'0 0.0
2017-Nov-12 03:30N 29°34' W 090°36'0 0.0
2017-Nov-12 03:00N 29°34' W 090°36'0 0.0
2017-Nov-12 02:30N 29°34' W 090°36'0 0.0
2017-Nov-12 02:00N 29°34' W 090°36'0 0.0
2017-Nov-12 01:30N 29°34' W 090°36'0 0.0
2017-Nov-12 01:00N 29°34' W 090°36'0 0.0
2017-Nov-12 00:30N 29°34' W 090°36'0 0.0
2017-Nov-12 00:00N 29°34' W 090°36'0 0.0
2017-Nov-11 23:30N 29°34' W 090°36'0 0.0
2017-Nov-11 23:00N 29°34' W 090°36'0 0.0
2017-Nov-11 22:30N 29°34' W 090°36'0 0.0
2017-Nov-11 22:00N 29°34' W 090°36'0 0.0
2017-Nov-11 21:30N 29°34' W 090°36'0 0.0
2017-Nov-11 21:00N 29°34' W 090°36'0 0.0
2017-Nov-11 20:30N 29°34' W 090°36'0 0.0
2017-Nov-11 20:00N 29°34' W 090°36'0 0.0
2017-Nov-11 19:30N 29°34' W 090°36'0 0.0
2017-Nov-11 19:00N 29°34' W 090°36'0 0.0
2017-Nov-11 18:30N 29°34' W 090°36'0 0.0
2017-Nov-11 18:00N 29°34' W 090°36'0 0.0
2017-Nov-11 17:30N 29°34' W 090°36'0 0.0
2017-Nov-11 17:00N 29°34' W 090°36'0 0.0
2017-Nov-11 16:30N 29°34' W 090°36'0 0.0
2017-Nov-11 16:00N 29°34' W 090°36'0 0.0
2017-Nov-11 15:30N 29°34' W 090°36'0 0.0
2017-Nov-11 15:00N 29°34' W 090°36'0 0.0
2017-Nov-11 14:30N 29°34' W 090°36'0 0.0
2017-Nov-11 14:00N 29°34' W 090°36'0 0.0
2017-Nov-11 13:30N 29°34' W 090°36'0 0.0
2017-Nov-11 13:00N 29°34' W 090°36'0 0.0
2017-Nov-11 12:30N 29°34' W 090°36'0 0.0
2017-Nov-11 12:00N 29°34' W 090°36'0 0.0
2017-Nov-11 11:30N 29°34' W 090°36'0 0.0
2017-Nov-11 11:00N 29°34' W 090°36'0 0.0
2017-Nov-11 10:30N 29°34' W 090°36'0 0.0
2017-Nov-11 10:00N 29°34' W 090°36'0 0.0
2017-Nov-11 09:30N 29°34' W 090°36'0 0.0
2017-Nov-11 09:00N 29°34' W 090°36'0 0.0
2017-Nov-11 08:30N 29°34' W 090°36'0 0.0
2017-Nov-11 08:00N 29°34' W 090°36'0 0.0
2017-Nov-11 07:30N 29°34' W 090°36'0 0.0
2017-Nov-11 07:00N 29°34' W 090°36'0 0.0
2017-Nov-11 06:30N 29°34' W 090°36'0 0.0
2017-Nov-11 06:00N 29°34' W 090°36'0 0.0
2017-Nov-11 05:30N 29°34' W 090°36'0 0.0
2017-Nov-11 05:00N 29°34' W 090°36'0 0.0
2017-Nov-11 04:30N 29°34' W 090°36'0 0.0
2017-Nov-11 04:00N 29°34' W 090°36'0 0.6
2017-Nov-11 03:30N 29°35' W 090°35'1 1.8
2017-Nov-11 02:59N 29°34' W 090°34'4 7.7
2017-Nov-11 02:30N 29°34' W 090°30'4 7.8
2017-Nov-11 02:00N 29°33' W 090°26'  
Track history (hours):
 
Tides and Currents Weather Stations Pressure Air Temp Water Temp Dewpoint Dewpoint Depression Visibility Wind Speed Wind Dir Waves Ship Positions

Jackie Gonsoulin

Owner: LeBeouf Bros. Towing, LLC, Houma, LA. More information available from US FCC via Universal Licensing System and Coast Guard Vessel Documentation Center.

Last reported at 2017-Nov-19 10:28 UTC. Time now 2017-Nov-22 14:47 UTC.
Position N 29°36' W 090°58'.

Length 23 m.

Type: Tug. MMSI: 367332930.

Date/timePositionNaut miles runAvg speedWind from/ knotsBaromVisibWave heightAir tempDewpointWater temp
2017-Nov-19 10:28N 29°36' W 090°58'8 6.1
2017-Nov-19 09:11N 29°32' W 090°50'1 6.4
2017-Nov-19 09:00N 29°32' W 090°49'3 6.0
2017-Nov-19 08:30N 29°33' W 090°46'3 5.8
2017-Nov-19 08:00N 29°35' W 090°43'0 0.6
2017-Nov-19 07:30N 29°35' W 090°43'0 0.0
2017-Nov-19 07:00N 29°35' W 090°43'0 0.0
2017-Nov-19 06:30N 29°35' W 090°43'0 0.0
2017-Nov-19 06:00N 29°35' W 090°43'2 4.2
2017-Nov-19 05:30N 29°37' W 090°42'3 6.8
2017-Nov-19 05:00N 29°35' W 090°39'3 5.5
2017-Nov-19 04:30N 29°34' W 090°36'0 0.3
2017-Nov-19 04:00N 29°34' W 090°36'0 0.0
2017-Nov-19 03:30N 29°34' W 090°36'0 0.0
2017-Nov-19 03:00N 29°34' W 090°36'0 0.0
2017-Nov-19 02:30N 29°34' W 090°36'0 0.0
2017-Nov-19 02:00N 29°34' W 090°36'0 0.0
2017-Nov-19 01:30N 29°34' W 090°36'0 0.0
2017-Nov-19 01:00N 29°34' W 090°36'0 0.0
2017-Nov-19 00:30N 29°34' W 090°36'0 0.0
2017-Nov-19 00:00N 29°34' W 090°36'0 0.0
2017-Nov-18 23:30N 29°34' W 090°36'0 0.0
2017-Nov-18 23:00N 29°34' W 090°36'0 0.0
2017-Nov-18 22:30N 29°34' W 090°36'0 0.0
2017-Nov-18 22:00N 29°34' W 090°36'0 0.0
2017-Nov-18 21:30N 29°34' W 090°36'0 0.0
2017-Nov-18 21:00N 29°34' W 090°36'0 0.0
2017-Nov-18 20:30N 29°34' W 090°36'0 0.0
2017-Nov-18 20:00N 29°34' W 090°36'0 0.0
2017-Nov-18 19:30N 29°34' W 090°36'0 0.0
2017-Nov-18 19:00N 29°34' W 090°36'0 0.0
2017-Nov-18 18:30N 29°34' W 090°36'0 0.0
2017-Nov-18 18:00N 29°34' W 090°36'0 0.0
2017-Nov-18 17:29N 29°34' W 090°36'0 0.0
2017-Nov-18 17:00N 29°34' W 090°36'0 0.0
2017-Nov-18 16:30N 29°34' W 090°36'0 0.0
2017-Nov-18 16:00N 29°34' W 090°36'0 0.0
2017-Nov-18 15:30N 29°34' W 090°36'0 0.0
2017-Nov-18 15:00N 29°34' W 090°36'0 0.0
2017-Nov-18 14:30N 29°34' W 090°36'0 0.0
2017-Nov-18 14:00N 29°34' W 090°36'0 0.0
2017-Nov-18 13:30N 29°34' W 090°36'0 0.0
2017-Nov-18 13:00N 29°34' W 090°36'0 0.0
2017-Nov-18 12:30N 29°34' W 090°36'0 0.0
2017-Nov-18 12:00N 29°34' W 090°36'0 0.0
2017-Nov-18 11:29N 29°34' W 090°36'0 0.0
2017-Nov-18 11:00N 29°34' W 090°36'0 0.0
2017-Nov-18 10:30N 29°34' W 090°36'0 0.0
2017-Nov-18 10:00N 29°34' W 090°36'0 0.0
2017-Nov-18 09:30N 29°34' W 090°36'0 0.0
2017-Nov-18 09:00N 29°34' W 090°36'0 0.0
2017-Nov-18 08:30N 29°34' W 090°36'0 0.0
2017-Nov-18 08:00N 29°34' W 090°36'0 0.0
2017-Nov-18 07:30N 29°34' W 090°36'0 0.0
2017-Nov-18 07:00N 29°34' W 090°36'0 0.0
2017-Nov-18 06:30N 29°34' W 090°36'0 0.0
2017-Nov-18 06:00N 29°34' W 090°36'0 0.0
2017-Nov-18 05:30N 29°34' W 090°36'0 0.0
2017-Nov-18 05:00N 29°34' W 090°36'0 0.0
2017-Nov-18 04:30N 29°34' W 090°36'0 0.0
2017-Nov-18 04:00N 29°34' W 090°36'0 0.0
2017-Nov-18 03:30N 29°34' W 090°36'0 0.0
2017-Nov-18 03:00N 29°34' W 090°36'0 0.0
2017-Nov-18 02:30N 29°34' W 090°36'0 0.0
2017-Nov-18 02:00N 29°34' W 090°36'0 0.0
2017-Nov-18 01:30N 29°34' W 090°36'0 0.0
2017-Nov-18 01:00N 29°34' W 090°36'0 0.0
2017-Nov-18 00:30N 29°34' W 090°36'0 0.0
2017-Nov-18 00:00N 29°34' W 090°36'0 0.0
2017-Nov-17 23:30N 29°34' W 090°36'0 0.0
2017-Nov-17 23:00N 29°34' W 090°36'0 0.0
2017-Nov-17 22:30N 29°34' W 090°36'0 0.0
2017-Nov-17 22:00N 29°34' W 090°36'0 0.0
2017-Nov-17 21:30N 29°34' W 090°36'0 0.0
2017-Nov-17 21:00N 29°34' W 090°36'0 0.0
2017-Nov-17 20:30N 29°34' W 090°36'0 0.0
2017-Nov-17 20:00N 29°34' W 090°36'0 0.0
2017-Nov-17 19:30N 29°34' W 090°36'0 0.0
2017-Nov-17 19:00N 29°34' W 090°36'0 0.7
2017-Nov-17 18:30N 29°35' W 090°36'0 0.7
2017-Nov-17 18:00N 29°34' W 090°36'0 0.0
2017-Nov-17 17:30N 29°34' W 090°36'0 0.0
2017-Nov-17 17:00N 29°34' W 090°36'0 0.0
2017-Nov-17 16:30N 29°34' W 090°36'0 0.0
2017-Nov-17 16:00N 29°34' W 090°36'0 0.0
2017-Nov-17 15:30N 29°34' W 090°36'0 0.0
2017-Nov-17 15:00N 29°34' W 090°36'0 0.0
2017-Nov-17 14:30N 29°34' W 090°36'0 0.0
2017-Nov-17 14:00N 29°34' W 090°36'0 0.0
2017-Nov-17 13:30N 29°34' W 090°36'0 0.0
2017-Nov-17 13:00N 29°34' W 090°36'0 0.0
2017-Nov-17 12:30N 29°34' W 090°36'0 0.0
2017-Nov-17 11:59N 29°34' W 090°36'0 0.0
2017-Nov-17 11:30N 29°34' W 090°36'0 0.0
2017-Nov-17 11:00N 29°34' W 090°36'0 0.0
2017-Nov-17 10:30N 29°34' W 090°36'0 0.0
2017-Nov-17 10:00N 29°34' W 090°36'0 0.0
2017-Nov-17 09:30N 29°34' W 090°36'0 0.0
2017-Nov-17 08:30N 29°34' W 090°36'0 0.0
2017-Nov-17 08:00N 29°34' W 090°36'0 0.0
2017-Nov-17 07:30N 29°34' W 090°36'0 0.0
2017-Nov-17 07:00N 29°34' W 090°36'0 0.0
2017-Nov-17 06:30N 29°34' W 090°36'0 0.0
2017-Nov-17 06:00N 29°34' W 090°36'0 0.0
2017-Nov-17 05:30N 29°34' W 090°36'0 0.0
2017-Nov-17 05:00N 29°34' W 090°36'0 0.0
2017-Nov-17 04:30N 29°34' W 090°36'0 0.0
2017-Nov-17 03:57N 29°34' W 090°36'0 0.0
2017-Nov-17 03:30N 29°34' W 090°36'0 0.0
2017-Nov-17 03:00N 29°34' W 090°36'0 0.0
2017-Nov-17 02:30N 29°34' W 090°36'0 0.0
2017-Nov-17 02:00N 29°34' W 090°36'0 0.0
2017-Nov-17 01:30N 29°34' W 090°36'0 0.0
2017-Nov-17 01:00N 29°34' W 090°36'0 0.0
2017-Nov-17 00:30N 29°34' W 090°36'0 0.0
2017-Nov-17 00:00N 29°34' W 090°36'0 0.0
2017-Nov-16 23:30N 29°34' W 090°36'0 0.0
2017-Nov-16 23:00N 29°34' W 090°36'0 0.0
2017-Nov-16 22:30N 29°34' W 090°36'0 0.0
2017-Nov-16 22:00N 29°34' W 090°36'0 0.0
2017-Nov-16 21:30N 29°34' W 090°36'0 0.0
2017-Nov-16 21:00N 29°34' W 090°36'0 0.0
2017-Nov-16 20:30N 29°34' W 090°36'0 0.0
2017-Nov-16 20:00N 29°34' W 090°36'  
2017-Nov-13 02:00N 29°34' W 090°36'0 0.0
2017-Nov-13 01:30N 29°34' W 090°36'0 0.0
2017-Nov-13 01:00N 29°34' W 090°36'0 0.0
2017-Nov-13 00:30N 29°34' W 090°36'0 0.0
2017-Nov-13 00:00N 29°34' W 090°36'0 0.0
2017-Nov-12 23:30N 29°34' W 090°36'0 0.0
2017-Nov-12 23:00N 29°34' W 090°36'0 0.0
2017-Nov-12 22:30N 29°34' W 090°36'0 0.0
2017-Nov-12 22:00N 29°34' W 090°36'0 0.0
2017-Nov-12 21:30N 29°34' W 090°36'0 0.0
2017-Nov-12 21:00N 29°34' W 090°36'0 0.0
2017-Nov-12 20:30N 29°34' W 090°36'0 0.0
2017-Nov-12 20:00N 29°34' W 090°36'0 0.0
2017-Nov-12 19:30N 29°34' W 090°36'0 0.0
2017-Nov-12 19:00N 29°34' W 090°36'0 0.0
2017-Nov-12 18:30N 29°34' W 090°36'0 0.0
2017-Nov-12 18:00N 29°34' W 090°36'0 0.0
2017-Nov-12 17:30N 29°34' W 090°36'0 0.0
2017-Nov-12 17:00N 29°34' W 090°36'0 0.0
2017-Nov-12 16:30N 29°34' W 090°36'0 0.0
2017-Nov-12 16:00N 29°34' W 090°36'0 0.0
2017-Nov-12 15:30N 29°34' W 090°36'0 0.0
2017-Nov-12 15:00N 29°34' W 090°36'0 0.0
2017-Nov-12 14:30N 29°34' W 090°36'0 0.0
2017-Nov-12 14:00N 29°34' W 090°36'0 0.0
2017-Nov-12 13:30N 29°34' W 090°36'0 0.0
2017-Nov-12 13:00N 29°34' W 090°36'0 0.0
2017-Nov-12 12:30N 29°34' W 090°36'0 0.0
2017-Nov-12 12:00N 29°34' W 090°36'0 0.0
2017-Nov-12 11:30N 29°34' W 090°36'0 0.0
2017-Nov-12 11:00N 29°34' W 090°36'0 0.0
2017-Nov-12 10:30N 29°34' W 090°36'0 0.0
2017-Nov-12 10:00N 29°34' W 090°36'0 0.0
2017-Nov-12 09:30N 29°34' W 090°36'0 0.0
2017-Nov-12 09:00N 29°34' W 090°36'0 0.0
2017-Nov-12 08:30N 29°34' W 090°36'0 0.0
2017-Nov-12 08:00N 29°34' W 090°36'0 0.0
2017-Nov-12 07:30N 29°34' W 090°36'0 0.0
2017-Nov-12 07:00N 29°34' W 090°36'0 0.0
2017-Nov-12 06:30N 29°34' W 090°36'0 0.0
2017-Nov-12 06:00N 29°34' W 090°36'0 0.0
2017-Nov-12 05:30N 29°34' W 090°36'0 0.0
2017-Nov-12 05:00N 29°34' W 090°36'0 0.0
2017-Nov-12 04:30N 29°34' W 090°36'0 0.0
2017-Nov-12 04:00N 29°34' W 090°36'0 0.0
2017-Nov-12 03:30N 29°34' W 090°36'0 0.0
2017-Nov-12 03:00N 29°34' W 090°36'0 0.0
2017-Nov-12 02:30N 29°34' W 090°36'0 0.0
2017-Nov-12 02:00N 29°34' W 090°36'0 0.0
2017-Nov-12 01:30N 29°34' W 090°36'0 0.0
2017-Nov-12 01:00N 29°34' W 090°36'0 0.0
2017-Nov-12 00:30N 29°34' W 090°36'0 0.0
2017-Nov-12 00:00N 29°34' W 090°36'0 0.0
2017-Nov-11 23:30N 29°34' W 090°36'0 0.0
2017-Nov-11 23:00N 29°34' W 090°36'0 0.0
2017-Nov-11 22:30N 29°34' W 090°36'0 0.0
2017-Nov-11 22:00N 29°34' W 090°36'0 0.0
2017-Nov-11 21:30N 29°34' W 090°36'0 0.0
2017-Nov-11 21:00N 29°34' W 090°36'0 0.0
2017-Nov-11 20:30N 29°34' W 090°36'0 0.0
2017-Nov-11 20:00N 29°34' W 090°36'0 0.0
2017-Nov-11 19:30N 29°34' W 090°36'0 0.0
2017-Nov-11 19:00N 29°34' W 090°36'0 0.0
2017-Nov-11 18:30N 29°34' W 090°36'0 0.0
2017-Nov-11 18:00N 29°34' W 090°36'0 0.0
2017-Nov-11 17:30N 29°34' W 090°36'0 0.0
2017-Nov-11 17:00N 29°34' W 090°36'0 0.0
2017-Nov-11 16:30N 29°34' W 090°36'0 0.0
2017-Nov-11 16:00N 29°34' W 090°36'0 0.0
2017-Nov-11 15:30N 29°34' W 090°36'0 0.0
2017-Nov-11 15:00N 29°34' W 090°36'0 0.0
2017-Nov-11 14:30N 29°34' W 090°36'0 0.0
2017-Nov-11 14:00N 29°34' W 090°36'0 0.0
2017-Nov-11 13:30N 29°34' W 090°36'0 0.0
2017-Nov-11 13:00N 29°34' W 090°36'0 0.0
2017-Nov-11 12:30N 29°34' W 090°36'0 0.0
2017-Nov-11 12:00N 29°34' W 090°36'0 0.0
2017-Nov-11 11:30N 29°34' W 090°36'0 0.0
2017-Nov-11 11:00N 29°34' W 090°36'0 0.0
2017-Nov-11 10:30N 29°34' W 090°36'0 0.0
2017-Nov-11 10:00N 29°34' W 090°36'0 0.0
2017-Nov-11 09:30N 29°34' W 090°36'0 0.0
2017-Nov-11 09:00N 29°34' W 090°36'0 0.0
2017-Nov-11 08:30N 29°34' W 090°36'0 0.0
2017-Nov-11 08:00N 29°34' W 090°36'0 0.0
2017-Nov-11 07:30N 29°34' W 090°36'0 0.0
2017-Nov-11 07:00N 29°34' W 090°36'0 0.0
2017-Nov-11 06:30N 29°34' W 090°36'0 0.0
2017-Nov-11 06:00N 29°34' W 090°36'0 0.0
2017-Nov-11 05:30N 29°34' W 090°36'0 0.0
2017-Nov-11 05:00N 29°34' W 090°36'0 0.0
2017-Nov-11 04:30N 29°34' W 090°36'0 0.0
2017-Nov-11 04:00N 29°34' W 090°36'0 0.6
2017-Nov-11 03:30N 29°35' W 090°35'1 1.8
2017-Nov-11 02:59N 29°34' W 090°34'4 7.7
2017-Nov-11 02:30N 29°34' W 090°30'4 7.8
2017-Nov-11 02:00N 29°33' W 090°26'  

Dump ship's entire track history